Terminal Aerodrome Forecast
Issued by NWS Nashville, TN

Home | Current Version | Previous Version | Text Only | Print | Product List | Glossary On
Versions: 1 2 3 4 5 6 7 8 9 10 11 12 13 14 15 16 17 18 19 20 21 22 23 24 25 26
352
FTUS44 KOHX 271129
TAFCSV
TAF
KCSV 271129Z 2712/2812 19003KT P6SM SCT035 BKN060
     FM271600 23008KT P6SM VCSH BKN035
     FM280600 22006KT 4SM TSRA BR BKN025CB OVC060=

USA.gov is the U.S. government's official web portal to all federal, state and local government web resources and services.